createdAt,value
2018-05-27T00:01:37.933Z,16.60
2018-05-27T00:04:05.463Z,16.60
2018-05-27T00:06:32.946Z,16.50
2018-05-27T00:09:00.609Z,16.50
2018-05-27T00:11:28.889Z,16.50
2018-05-27T00:13:56.444Z,16.50
2018-05-27T00:16:26.635Z,16.50
2018-05-27T00:18:54.125Z,16.50
2018-05-27T00:21:21.634Z,16.60
2018-05-27T00:23:49.905Z,16.60
2018-05-27T00:26:17.380Z,16.60
2018-05-27T00:28:44.880Z,16.60
2018-05-27T00:31:12.365Z,16.60
2018-05-27T00:33:39.863Z,16.60
2018-05-27T00:36:07.341Z,16.70
2018-05-27T00:38:34.854Z,16.70
2018-05-27T00:41:02.907Z,16.50
2018-05-27T00:43:31.607Z,16.50
2018-05-27T00:45:59.180Z,16.50
2018-05-27T00:48:27.426Z,16.50
2018-05-27T00:50:54.909Z,16.50
2018-05-27T00:56:23.228Z,16.50
2018-05-27T00:58:50.840Z,16.50
2018-05-27T01:01:18.448Z,16.40
2018-05-27T01:03:45.929Z,16.50
2018-05-27T01:06:13.410Z,16.40
2018-05-27T01:08:40.890Z,16.40
2018-05-27T01:11:08.380Z,16.40
2018-05-27T01:13:35.887Z,16.30
2018-05-27T01:16:04.484Z,16.30
2018-05-27T01:18:32.000Z,16.20
2018-05-27T01:20:59.480Z,16.20
2018-05-27T01:23:26.970Z,16.20
2018-05-27T01:25:55.129Z,16.20
2018-05-27T01:28:23.391Z,16.30
2018-05-27T01:30:50.884Z,16.20
2018-05-27T01:33:20.029Z,16.30
2018-05-27T01:35:47.551Z,16.20
2018-05-27T01:38:15.819Z,16.40
2018-05-27T01:40:44.055Z,16.30
2018-05-27T01:43:11.542Z,16.30
2018-05-27T01:45:39.027Z,16.30
2018-05-27T01:48:06.521Z,16.20
2018-05-27T01:50:34.022Z,16.20
2018-05-27T01:53:02.260Z,16.20
2018-05-27T01:55:29.755Z,16.20
2018-05-27T01:57:57.990Z,16.30
2018-05-27T02:00:25.484Z,16.20
2018-05-27T02:02:53.720Z,16.40
2018-05-27T02:05:21.220Z,16.40
2018-05-27T02:07:49.542Z,16.40
2018-05-27T02:10:17.887Z,16.40
2018-05-27T02:12:45.377Z,16.50
2018-05-27T02:15:12.848Z,16.40
2018-05-27T02:17:40.332Z,16.50
2018-05-27T02:20:07.832Z,16.40
2018-05-27T02:22:35.334Z,16.50
2018-05-27T02:25:02.899Z,16.50
2018-05-27T02:27:30.392Z,16.50
2018-05-27T02:29:58.660Z,16.50
2018-05-27T02:32:27.104Z,16.60
2018-05-27T02:34:54.617Z,16.60
2018-05-27T02:37:22.124Z,16.60
2018-05-27T02:39:49.656Z,16.60
2018-05-27T02:42:18.914Z,16.60
2018-05-27T02:44:46.433Z,16.40
2018-05-27T02:47:13.939Z,16.20
2018-05-27T02:49:41.475Z,16.10
2018-05-27T02:52:08.963Z,16.00
2018-05-27T02:54:36.462Z,15.90
2018-05-27T02:57:03.971Z,15.90
2018-05-27T02:59:31.451Z,15.80
2018-05-27T03:01:58.939Z,15.80
2018-05-27T03:04:26.440Z,15.80
2018-05-27T03:06:54.678Z,15.90
2018-05-27T03:09:22.190Z,15.90
2018-05-27T03:11:49.690Z,15.90
2018-05-27T03:14:17.208Z,15.80
2018-05-27T03:16:44.803Z,15.80
2018-05-27T03:19:12.337Z,15.80
2018-05-27T03:21:39.839Z,15.80
2018-05-27T03:24:07.364Z,15.80
2018-05-27T03:26:34.980Z,15.70
2018-05-27T03:29:02.521Z,15.70
2018-05-27T03:31:30.965Z,15.90
2018-05-27T03:33:59.073Z,15.90
2018-05-27T03:36:26.570Z,15.80
2018-05-27T03:38:54.149Z,15.80
2018-05-27T03:41:21.729Z,15.90
2018-05-27T03:43:49.271Z,15.80
2018-05-27T03:46:16.780Z,15.90
2018-05-27T03:48:44.280Z,15.70
2018-05-27T03:51:11.805Z,15.70
2018-05-27T03:53:39.321Z,15.70
2018-05-27T03:56:06.789Z,15.50
2018-05-27T03:58:34.263Z,15.50
2018-05-27T04:01:02.517Z,15.60
2018-05-27T04:03:30.802Z,15.60
2018-05-27T04:06:10.162Z,15.60
2018-05-27T04:08:38.434Z,15.60
2018-05-27T04:11:05.948Z,15.50
2018-05-27T04:13:33.413Z,15.50
2018-05-27T04:16:00.909Z,15.50
2018-05-27T04:18:28.432Z,15.50
2018-05-27T04:20:55.916Z,15.50
2018-05-27T04:23:23.444Z,15.50
2018-05-27T04:25:50.973Z,15.50
2018-05-27T04:28:18.519Z,15.40
2018-05-27T04:30:45.994Z,15.40
2018-05-27T04:33:13.496Z,15.40
2018-05-27T04:35:40.981Z,15.40
2018-05-27T04:38:09.207Z,15.50
2018-05-27T04:40:36.708Z,15.50
2018-05-27T04:43:04.190Z,15.50
2018-05-27T04:45:32.436Z,15.90
2018-05-27T04:48:00.711Z,16.00
2018-05-27T04:50:28.232Z,16.00
2018-05-27T04:52:55.719Z,16.20
2018-05-27T04:55:23.223Z,16.50
2018-05-27T04:57:50.719Z,16.60
2018-05-27T05:00:18.994Z,17.00
2018-05-27T05:02:49.610Z,17.00
2018-05-27T05:05:17.113Z,17.20
2018-05-27T05:07:45.358Z,17.50
2018-05-27T05:10:12.847Z,17.50
2018-05-27T05:12:40.349Z,17.60
2018-05-27T05:15:07.975Z,17.80
2018-05-27T05:17:35.511Z,17.90
2018-05-27T05:20:02.990Z,17.80
2018-05-27T05:22:30.467Z,18.00
2018-05-27T05:24:57.967Z,18.10
2018-05-27T05:27:25.439Z,18.20
2018-05-27T05:29:52.902Z,18.40
2018-05-27T05:32:20.376Z,18.60
2018-05-27T05:34:48.616Z,18.90
2018-05-27T05:37:16.093Z,18.90
2018-05-27T05:39:44.003Z,19.10
2018-05-27T05:42:11.509Z,19.20
2018-05-27T05:44:39.012Z,19.40
2018-05-27T05:47:07.211Z,19.60
2018-05-27T05:49:34.758Z,19.80
2018-05-27T05:52:02.263Z,20.00
2018-05-27T05:54:30.647Z,20.10
2018-05-27T05:56:58.130Z,20.20
2018-05-27T05:59:25.636Z,20.50
2018-05-27T06:01:53.130Z,20.70
2018-05-27T06:04:21.430Z,20.90
2018-05-27T06:06:49.048Z,21.10
2018-05-27T06:09:16.553Z,21.40
2018-05-27T06:11:44.025Z,21.40
2018-05-27T06:14:11.528Z,21.80
2018-05-27T06:16:38.987Z,21.90
2018-05-27T06:19:06.478Z,22.10
2018-05-27T06:21:34.728Z,22.30
2018-05-27T06:24:03.013Z,22.90
2018-05-27T06:26:31.775Z,23.30
2018-05-27T06:28:59.334Z,23.30
2018-05-27T06:31:26.824Z,23.50
2018-05-27T06:33:56.641Z,23.60
2018-05-27T06:36:24.233Z,23.60
2018-05-27T06:38:54.444Z,23.90
2018-05-27T06:41:21.950Z,24.00
2018-05-27T06:43:49.453Z,24.30
2018-05-27T06:46:16.969Z,24.30
2018-05-27T06:48:45.256Z,24.50
2018-05-27T06:51:12.791Z,24.60
2018-05-27T06:53:40.246Z,24.70
2018-05-27T06:56:07.848Z,25.20
2018-05-27T06:58:35.370Z,25.00
2018-05-27T07:01:02.841Z,25.30
2018-05-27T07:03:31.112Z,25.70
2018-05-27T07:05:58.615Z,25.70
2018-05-27T07:08:26.108Z,26.10
2018-05-27T07:10:53.635Z,26.40
2018-05-27T07:13:21.900Z,26.50
2018-05-27T07:15:49.408Z,26.50
2018-05-27T07:18:17.593Z,27.00
2018-05-27T07:20:45.073Z,26.90
2018-05-27T07:23:13.344Z,27.00
2018-05-27T07:25:41.843Z,27.00
2018-05-27T07:28:09.348Z,27.10
2018-05-27T07:30:36.844Z,27.50
2018-05-27T07:33:05.135Z,28.50
2018-05-27T07:35:32.635Z,28.40
2018-05-27T07:38:01.060Z,28.80
2018-05-27T07:40:29.315Z,27.40
2018-05-27T07:42:56.856Z,27.40
2018-05-27T07:45:24.736Z,27.10
2018-05-27T07:47:52.306Z,27.40
2018-05-27T07:50:19.765Z,27.90
2018-05-27T07:52:49.159Z,28.20
2018-05-27T07:55:16.655Z,28.20
2018-05-27T07:57:44.130Z,27.60
2018-05-27T08:00:11.636Z,26.70
2018-05-27T08:02:39.142Z,26.40
2018-05-27T08:05:06.646Z,26.20
2018-05-27T08:07:34.136Z,25.80
2018-05-27T08:10:01.646Z,25.60
2018-05-27T08:12:29.146Z,25.50
2018-05-27T08:14:57.407Z,25.30
2018-05-27T08:17:24.901Z,25.30
2018-05-27T08:19:52.484Z,25.20
2018-05-27T08:22:19.909Z,25.10
2018-05-27T08:24:47.502Z,24.90
2018-05-27T08:27:15.005Z,25.10
2018-05-27T08:29:42.502Z,25.20
2018-05-27T08:32:09.985Z,24.90
2018-05-27T08:34:37.470Z,24.70
2018-05-27T08:37:05.010Z,24.60
2018-05-27T08:39:32.504Z,24.60
2018-05-27T08:42:00.014Z,24.70
2018-05-27T08:44:29.824Z,25.00
2018-05-27T08:46:57.952Z,25.10
2018-05-27T08:49:25.469Z,25.10
2018-05-27T08:51:52.940Z,24.90
2018-05-27T08:54:20.457Z,24.70
2018-05-27T08:56:48.718Z,24.70
2018-05-27T08:59:16.227Z,24.70
2018-05-27T09:01:43.721Z,25.10
2018-05-27T09:04:11.220Z,25.50
2018-05-27T09:06:38.752Z,25.90
2018-05-27T09:09:06.291Z,25.50
2018-05-27T09:11:33.819Z,25.40
2018-05-27T09:14:01.325Z,25.40
2018-05-27T09:16:28.826Z,25.60
2018-05-27T09:18:56.422Z,25.50
2018-05-27T09:21:23.901Z,25.30
2018-05-27T09:23:51.382Z,24.90
2018-05-27T09:26:18.879Z,24.50
2018-05-27T09:28:46.363Z,24.30
2018-05-27T09:31:14.634Z,23.90
2018-05-27T09:33:43.196Z,23.80
2018-05-27T09:36:10.699Z,23.80
2018-05-27T09:38:38.503Z,23.70
2018-05-27T09:41:06.054Z,23.60
2018-05-27T09:43:33.571Z,23.50
2018-05-27T09:46:01.755Z,23.30
2018-05-27T09:48:29.549Z,23.20
2018-05-27T09:50:57.673Z,23.20
2018-05-27T09:53:25.204Z,23.30
2018-05-27T09:55:52.701Z,23.50
2018-05-27T09:58:20.208Z,23.40
2018-05-27T10:00:49.198Z,23.40
2018-05-27T10:03:16.717Z,23.40
2018-05-27T10:05:44.254Z,23.50
2018-05-27T10:08:12.544Z,23.10
2018-05-27T10:10:41.288Z,23.10
2018-05-27T10:13:08.780Z,23.10
2018-05-27T10:15:36.275Z,23.10
2018-05-27T10:18:03.758Z,22.90
2018-05-27T10:20:31.300Z,23.10
2018-05-27T10:22:58.785Z,23.40
2018-05-27T10:25:26.254Z,23.70
2018-05-27T10:27:53.770Z,23.90
2018-05-27T10:30:21.286Z,24.00
2018-05-27T10:32:49.421Z,24.20
2018-05-27T10:35:16.977Z,24.50
2018-05-27T10:37:44.496Z,24.70
2018-05-27T10:40:13.810Z,24.60
2018-05-27T10:42:41.342Z,24.70
2018-05-27T10:48:13.712Z,24.70
2018-05-27T10:50:44.447Z,24.40
2018-05-27T10:53:16.407Z,24.30
2018-05-27T10:55:46.896Z,24.30
2018-05-27T10:58:27.743Z,24.20
2018-05-27T11:01:02.552Z,24.10
2018-05-27T11:03:39.175Z,24.50
2018-05-27T11:06:06.714Z,24.50
2018-05-27T11:08:34.943Z,24.40
2018-05-27T11:11:03.294Z,24.50
2018-05-27T11:13:32.689Z,24.50
2018-05-27T11:16:00.245Z,24.50
2018-05-27T11:18:27.707Z,24.60
2018-05-27T11:20:57.688Z,24.70
2018-05-27T11:23:26.339Z,24.50
2018-05-27T11:25:53.842Z,24.60
2018-05-27T11:28:21.376Z,24.40
2018-05-27T11:30:48.928Z,24.50
2018-05-27T11:33:18.181Z,24.70
2018-05-27T11:35:45.664Z,24.60
2018-05-27T11:38:13.146Z,24.90
2018-05-27T11:40:40.680Z,25.30
2018-05-27T11:43:08.162Z,25.50
2018-05-27T11:45:36.419Z,25.30
2018-05-27T11:48:03.923Z,25.20
2018-05-27T11:50:31.424Z,25.20
2018-05-27T11:53:00.179Z,25.30
2018-05-27T11:55:27.910Z,25.30
2018-05-27T11:57:56.197Z,25.00
2018-05-27T12:00:24.442Z,25.20
2018-05-27T12:02:51.949Z,25.10
2018-05-27T12:05:19.652Z,25.50
2018-05-27T12:07:47.166Z,25.50
2018-05-27T12:10:14.656Z,25.80
2018-05-27T12:12:42.176Z,26.50
2018-05-27T12:15:09.661Z,27.40
2018-05-27T12:17:37.913Z,27.30
2018-05-27T12:20:05.387Z,27.30
2018-05-27T12:22:32.890Z,27.50
2018-05-27T12:25:00.353Z,27.70
2018-05-27T12:27:28.590Z,27.40
2018-05-27T12:29:56.154Z,27.30
2018-05-27T12:32:23.631Z,26.90
2018-05-27T12:34:51.131Z,26.30
2018-05-27T12:37:18.700Z,25.80
2018-05-27T12:39:46.189Z,25.90
2018-05-27T12:42:14.036Z,26.10
2018-05-27T12:44:41.538Z,26.20
2018-05-27T12:47:09.032Z,26.30
2018-05-27T12:49:36.544Z,26.50
2018-05-27T12:52:04.012Z,26.30
2018-05-27T12:54:31.534Z,26.30
2018-05-27T12:56:59.037Z,26.10
2018-05-27T12:59:26.512Z,26.10
2018-05-27T13:01:54.770Z,26.70
2018-05-27T13:04:23.057Z,27.00
2018-05-27T13:06:51.334Z,27.00
2018-05-27T13:09:19.571Z,27.50
2018-05-27T13:11:47.083Z,27.40
2018-05-27T13:14:14.554Z,28.00
2018-05-27T13:16:42.166Z,28.30
2018-05-27T13:19:09.533Z,29.20
2018-05-27T13:21:37.349Z,29.20
2018-05-27T13:24:04.904Z,30.10
2018-05-27T13:26:32.636Z,30.40
2018-05-27T13:29:00.132Z,31.50
2018-05-27T13:31:27.667Z,30.80
2018-05-27T13:33:55.157Z,30.50
2018-05-27T13:36:22.710Z,30.40
2018-05-27T13:38:50.247Z,31.20
2018-05-27T13:41:17.753Z,32.30
2018-05-27T13:43:45.240Z,33.10
2018-05-27T13:46:13.508Z,34.00
2018-05-27T13:48:41.769Z,33.10
2018-05-27T13:51:09.301Z,33.10
2018-05-27T13:53:36.834Z,32.80
2018-05-27T13:56:05.594Z,31.20
2018-05-27T13:58:33.852Z,29.70
2018-05-27T14:01:01.336Z,29.60
2018-05-27T14:03:29.585Z,28.70
2018-05-27T14:05:57.068Z,28.70
2018-05-27T14:08:24.572Z,28.70
2018-05-27T14:10:52.062Z,28.70
2018-05-27T14:13:19.580Z,28.60
2018-05-27T14:15:47.074Z,28.30
2018-05-27T14:18:14.574Z,27.90
2018-05-27T14:20:42.062Z,27.30
2018-05-27T14:23:09.573Z,27.00
2018-05-27T14:25:37.072Z,26.70
2018-05-27T14:28:04.593Z,26.50
2018-05-27T14:30:32.162Z,26.40
2018-05-27T14:33:00.449Z,26.20
2018-05-27T14:35:27.965Z,26.10
2018-05-27T14:37:56.243Z,25.80
2018-05-27T14:40:23.755Z,25.90
2018-05-27T14:42:52.020Z,25.80
2018-05-27T14:45:19.547Z,25.70
2018-05-27T14:47:47.784Z,25.60
2018-05-27T14:50:15.300Z,25.60
2018-05-27T14:52:42.791Z,25.60
2018-05-27T14:55:10.280Z,25.30
2018-05-27T14:57:37.802Z,25.20
2018-05-27T15:00:05.347Z,24.80
2018-05-27T15:02:32.832Z,24.70
2018-05-27T15:05:00.315Z,24.50
2018-05-27T15:07:27.827Z,24.30
2018-05-27T15:09:55.305Z,24.10
2018-05-27T15:12:22.830Z,23.90
2018-05-27T15:14:50.343Z,23.70
2018-05-27T15:17:17.843Z,23.50
2018-05-27T15:19:45.339Z,23.50
2018-05-27T15:22:12.872Z,23.40
2018-05-27T15:24:40.423Z,23.20
2018-05-27T15:27:08.684Z,22.90
2018-05-27T15:29:36.964Z,22.90
2018-05-27T15:32:04.496Z,22.80
2018-05-27T15:34:31.971Z,22.80
2018-05-27T15:36:59.436Z,22.70
2018-05-27T15:39:26.971Z,22.70
2018-05-27T15:41:55.216Z,22.70
2018-05-27T15:44:22.712Z,22.60
2018-05-27T15:46:51.000Z,22.30
2018-05-27T15:49:18.509Z,22.30
2018-05-27T15:51:46.426Z,22.00
2018-05-27T15:54:14.021Z,21.50
2018-05-27T15:56:41.527Z,21.10
2018-05-27T15:59:09.823Z,20.40
2018-05-27T16:01:37.294Z,20.30
2018-05-27T16:04:04.798Z,20.10
2018-05-27T16:06:32.317Z,20.10
2018-05-27T16:08:59.825Z,20.00
2018-05-27T16:11:27.346Z,19.90
2018-05-27T16:13:55.613Z,19.60
2018-05-27T16:16:23.139Z,19.60
2018-05-27T16:18:50.619Z,19.50
2018-05-27T16:21:19.955Z,19.40
2018-05-27T16:23:47.507Z,19.30
2018-05-27T16:26:15.032Z,19.20
2018-05-27T16:28:42.577Z,19.30
2018-05-27T16:31:10.847Z,19.20
2018-05-27T16:33:39.113Z,19.20
2018-05-27T16:36:07.873Z,19.20
2018-05-27T16:38:35.382Z,19.30
2018-05-27T16:41:02.904Z,19.20
2018-05-27T16:43:30.393Z,19.20
2018-05-27T16:45:57.882Z,19.20
2018-05-27T16:48:25.400Z,19.10
2018-05-27T16:50:53.661Z,19.10
2018-05-27T16:53:21.172Z,18.50
2018-05-27T16:55:49.526Z,19.10
2018-05-27T16:58:17.147Z,19.10
2018-05-27T17:00:50.727Z,19.10
2018-05-27T17:03:19.014Z,19.00
2018-05-27T17:05:46.513Z,19.00
2018-05-27T17:08:14.388Z,18.80
2018-05-27T17:10:41.923Z,18.70
2018-05-27T17:13:09.434Z,18.60
2018-05-27T17:15:36.933Z,18.40
2018-05-27T17:18:05.197Z,18.30
2018-05-27T17:20:32.675Z,18.30
2018-05-27T17:23:00.965Z,18.10
2018-05-27T17:25:28.471Z,18.10
2018-05-27T17:27:56.167Z,18.00
2018-05-27T17:30:23.688Z,18.00
2018-05-27T17:32:51.210Z,17.90
2018-05-27T17:35:18.726Z,18.00
2018-05-27T17:37:46.946Z,18.10
2018-05-27T17:40:14.465Z,18.20
2018-05-27T17:42:41.994Z,18.30
2018-05-27T17:45:09.516Z,18.40
2018-05-27T17:47:37.887Z,18.50
2018-05-27T17:50:05.402Z,18.60
2018-05-27T17:52:32.975Z,18.80
2018-05-27T17:55:00.456Z,18.90
2018-05-27T17:57:32.391Z,19.10
2018-05-27T18:00:06.140Z,19.00
2018-05-27T18:02:33.752Z,19.00
2018-05-27T18:05:02.050Z,19.00
2018-05-27T18:07:29.555Z,19.00
2018-05-27T18:10:00.888Z,19.00
2018-05-27T18:12:32.222Z,19.10
2018-05-27T18:15:03.033Z,19.10
2018-05-27T18:17:30.684Z,19.20
2018-05-27T18:20:06.737Z,19.10
2018-05-27T18:22:34.312Z,19.10
2018-05-27T18:25:03.084Z,19.10
2018-05-27T18:27:30.729Z,19.10
2018-05-27T18:29:58.689Z,19.10
2018-05-27T18:32:26.924Z,19.10
2018-05-27T18:34:56.479Z,19.20
2018-05-27T18:37:24.091Z,19.10
2018-05-27T18:39:51.929Z,19.00
2018-05-27T18:42:19.923Z,18.80
2018-05-27T18:44:50.974Z,18.60
2018-05-27T18:47:18.496Z,18.20
2018-05-27T18:49:46.019Z,17.90
2018-05-27T18:52:13.525Z,17.80
2018-05-27T18:54:41.786Z,17.80
2018-05-27T18:57:09.414Z,17.80
2018-05-27T18:59:37.695Z,17.90
2018-05-27T19:02:05.192Z,19.10
2018-05-27T19:04:32.704Z,18.00
2018-05-27T19:07:00.225Z,18.10
2018-05-27T19:09:27.775Z,18.10
2018-05-27T19:11:55.287Z,18.20
2018-05-27T19:14:22.777Z,18.10
2018-05-27T19:16:50.309Z,18.00
2018-05-27T19:19:17.918Z,18.00
2018-05-27T19:21:45.461Z,17.90
2018-05-27T19:24:12.985Z,18.10
2018-05-27T19:26:40.510Z,18.20
2018-05-27T19:29:08.016Z,18.20
2018-05-27T19:31:35.532Z,18.20
2018-05-27T19:34:03.042Z,18.30
2018-05-27T19:36:30.539Z,18.40
2018-05-27T19:38:58.182Z,18.40
2018-05-27T19:41:25.730Z,18.40
2018-05-27T19:43:53.258Z,18.40
2018-05-27T19:46:21.447Z,18.40
2018-05-27T19:48:48.950Z,18.40
2018-05-27T19:51:16.446Z,18.40
2018-05-27T19:53:44.734Z,18.30
2018-05-27T19:56:12.229Z,18.20
2018-05-27T19:58:39.747Z,18.20
2018-05-27T20:01:07.264Z,18.20
2018-05-27T20:03:34.761Z,18.20
2018-05-27T20:06:02.235Z,18.30
2018-05-27T20:08:29.777Z,18.20
2018-05-27T20:10:57.270Z,18.20
2018-05-27T20:13:25.195Z,18.10
2018-05-27T20:15:52.747Z,18.10
2018-05-27T20:18:20.230Z,18.20
2018-05-27T20:20:47.705Z,18.20
2018-05-27T20:23:15.310Z,18.20
2018-05-27T20:25:42.803Z,18.20
2018-05-27T20:28:10.294Z,18.10
2018-05-27T20:30:37.812Z,18.10
2018-05-27T20:33:05.296Z,18.10
2018-05-27T20:35:32.812Z,18.00
2018-05-27T20:38:00.318Z,17.90
2018-05-27T20:40:27.805Z,17.90
2018-05-27T20:42:55.289Z,17.90
2018-05-27T20:45:22.808Z,17.80
2018-05-27T20:47:50.349Z,17.80
2018-05-27T20:50:17.856Z,17.80
2018-05-27T20:52:46.187Z,17.80
2018-05-27T20:55:13.741Z,17.90
2018-05-27T20:57:41.315Z,17.90
2018-05-27T21:00:08.818Z,17.80
2018-05-27T21:02:36.337Z,17.80
2018-05-27T21:05:04.580Z,17.90
2018-05-27T21:07:32.085Z,17.90
2018-05-27T21:10:00.472Z,17.90
2018-05-27T21:12:28.676Z,17.90
2018-05-27T21:14:56.985Z,17.80
2018-05-27T21:17:25.457Z,17.70
2018-05-27T21:19:52.947Z,17.60
2018-05-27T21:22:21.318Z,17.60
2018-05-27T21:24:48.840Z,17.60
2018-05-27T21:27:16.339Z,17.60
2018-05-27T21:29:44.615Z,17.50
2018-05-27T21:32:12.904Z,17.50
2018-05-27T21:34:41.767Z,17.40
2018-05-27T21:37:09.389Z,17.50
2018-05-27T21:39:38.034Z,17.40
2018-05-27T21:42:05.564Z,17.40
2018-05-27T21:44:33.114Z,17.30
2018-05-27T21:47:00.617Z,17.30
2018-05-27T21:49:28.433Z,17.20
2018-05-27T21:51:55.978Z,17.20
2018-05-27T21:54:24.348Z,17.20
2018-05-27T21:56:51.852Z,17.10
2018-05-27T21:59:19.397Z,17.20
2018-05-27T22:01:46.903Z,17.20
2018-05-27T22:04:14.400Z,17.10
2018-05-27T22:06:41.929Z,17.10
2018-05-27T22:09:09.574Z,17.00
2018-05-27T22:11:37.090Z,17.00
2018-05-27T22:14:05.566Z,16.90
2018-05-27T22:16:33.033Z,16.80
2018-05-27T22:19:00.853Z,16.80
2018-05-27T22:21:29.058Z,16.70
2018-05-27T22:23:57.466Z,16.60
2018-05-27T22:26:24.959Z,16.70
2018-05-27T22:28:52.738Z,16.70
2018-05-27T22:31:20.264Z,16.80
2018-05-27T22:33:47.766Z,16.70
2018-05-27T22:36:15.323Z,16.80
2018-05-27T22:38:42.823Z,16.80
2018-05-27T22:41:10.289Z,17.00
2018-05-27T22:43:38.582Z,17.10
2018-05-27T22:46:07.423Z,17.10
2018-05-27T22:48:34.909Z,17.10
2018-05-27T22:51:03.180Z,16.90
2018-05-27T22:53:32.156Z,17.00
2018-05-27T22:55:59.739Z,16.90
2018-05-27T22:58:27.264Z,17.00
2018-05-27T23:00:55.580Z,17.00
2018-05-27T23:03:27.330Z,17.10
2018-05-27T23:05:55.575Z,17.10
2018-05-27T23:08:23.964Z,17.10
2018-05-27T23:10:52.050Z,17.10
2018-05-27T23:15:53.587Z,16.90
2018-05-27T23:18:21.081Z,17.00
2018-05-27T23:20:49.359Z,16.80
2018-05-27T23:23:17.613Z,16.80
2018-05-27T23:25:45.126Z,16.70
2018-05-27T23:28:12.652Z,16.90
2018-05-27T23:30:40.919Z,16.80
2018-05-27T23:33:08.419Z,16.70
2018-05-27T23:35:35.911Z,16.80
2018-05-27T23:38:04.624Z,16.80
2018-05-27T23:40:32.120Z,16.70
2018-05-27T23:42:59.593Z,16.60
2018-05-27T23:45:27.729Z,16.60
2018-05-27T23:47:55.213Z,16.60
2018-05-27T23:50:22.726Z,16.70
2018-05-27T23:52:50.241Z,16.70
2018-05-27T23:55:17.757Z,16.70
2018-05-27T23:57:47.055Z,16.70
